Portada
METAR-TAF:

METAR-TAF

Aeroports :

Valley, Gal·les

latitud: 53-15N, longitud: 004-32W, altitud: 1 m

Observació

L'informe es va fer fa 43 minuts, a les 22:50 UTC
Vent 16 kt del Oest
Temperatura 10°C
Humitat 82%
Pressió 1008 hPa
Visibilitat 10 km o més

METAR: EGOV 062250Z AUTO 28016KT 9999 BKN017/// 10/07 Q1008

Hora: 23:33 (23:33 UTC)

Pronòstic

L'informe es va fer fa 9 hores i 47 minuts, a les 13:46 UTC
Pronòstic vàlid del 06 a les 15 UTC al 06 a les 18 UTC
Vent 20 kt del Oest amb ràfegues de 30 kt
Visibilitat 10 km o més
Escasses núvols a una alçada de 1500 ft
Núvols disperses a una alçada de 3000 ft
Probabilitat 30% :
Temporalment
l' 06 a les 15 UTC al 06 a les 17 UTC
Núvols disperses a una alçada de 1200 ft
Cel ennuvolat a una alçada de 2200 ft
xàfecs de pluja
Evolucionant progressivament
l' 06 a les 16 UTC al 06 a les 18 UTC
Vent 17 kt del Oest

TAF: EGOV 061346Z 0615/0618 28020G30KT 9999 FEW015 SCT030 PROB30 TEMPO 0615/0617 -SHRA SCT012 BKN022 BECMG 0616/0618 28017KT

Observacions i pronòstics meteorològics de més de 4000 aeroports (METAR i TAF).

Les estacions disponibles són els punts grocs i vermells al mapa.

Posi el ratolí al punt desitjat per veure el nom de l'estació.

Feu clic per veure les observacions i els pronòstics meteorològics.

Per canviar el mapa: feu clic els botons verds amb una creu de color negre per apropar; al botó verd amb un guió per allunyar la imatge; o en les fletxes verdes per a mapes adjacents.


METAR-TAF: